Time;durP1;ratioP1;P1;durP2;ratioP2;P2;SDS_P1;SDS_P2;PMS_P1;PMS_P2;Temp;Humidity;BMP_temperature;BMP_pressure;BME280_temperature;BME280_humidity;BME280_pressure;Samples;Min_cycle;Max_cycle;Signal;HPM_P1;HPM_P2
2023/01/05 00:01:44;;;;;;;3.50;1.50;;;11.40;99.90;;;-141.84;66.33;19651.25;5072410;28;20230;-75
2023/01/05 00:04:15;;;;;;;4.17;2.13;;;11.40;99.90;;;-141.84;65.64;19681.75;5072068;28;20431;-74
2023/01/05 00:06:44;;;;;;;7.50;1.77;;;11.50;99.90;;;-141.84;65.84;19693.94;5071767;28;20267;-73
2023/01/05 00:09:17;;;;;;;6.00;2.17;;;11.60;99.90;;;-141.84;65.13;19681.75;5071654;28;20235;-73
2023/01/05 00:23:01;;;;;;;6.33;1.77;;;11.50;99.90;;;-141.84;65.67;19710.19;5071557;28;20205;-74
2023/01/05 00:25:32;;;;;;;8.67;2.33;;;11.60;99.90;;;-141.84;66.05;19700.03;5071394;28;20239;-73
2023/01/05 00:28:00;;;;;;;5.30;1.73;;;11.50;99.90;;;-141.84;66.35;19702.06;5070801;28;20247;-74
2023/01/05 00:30:33;;;;;;;7.93;1.57;;;11.60;99.90;;;-141.84;66.72;19702.06;5070949;28;20232;-74
2023/01/05 00:33:01;;;;;;;7.93;1.50;;;11.50;99.90;;;-141.84;67.29;19663.44;5071266;28;20220;-71
2023/01/05 00:35:31;;;;;;;6.13;1.73;;;11.50;99.90;;;-141.84;68.30;19659.38;5070956;28;20209;-72
2023/01/05 00:37:59;;;;;;;4.87;1.70;;;11.50;99.90;;;-141.84;69.17;19624.84;5071790;28;20201;-70
2023/01/05 00:40:27;;;;;;;7.87;1.67;;;11.40;99.90;;;-141.84;70.34;19608.56;5071267;28;20747;-71
2023/01/05 00:42:55;;;;;;;5.63;1.80;;;11.30;99.90;;;-141.84;71.16;19580.13;5071002;28;20225;-74
2023/01/05 00:45:24;;;;;;;9.30;2.20;;;11.10;99.90;;;-141.84;71.97;19561.84;5071041;28;20742;-73
2023/01/05 00:47:52;;;;;;;4.50;1.80;;;11.00;99.90;;;-141.84;71.96;19545.56;5071193;28;20251;-74
2023/01/05 00:50:22;;;;;;;5.13;1.70;;;10.90;99.90;;;-141.84;71.25;19586.22;5070878;28;20238;-72
2023/01/05 00:52:52;;;;;;;5.20;1.60;;;10.80;99.90;;;-141.84;71.61;19586.22;5071399;28;20216;-71
2023/01/05 00:55:20;;;;;;;7.00;1.80;;;10.80;99.90;;;-141.84;71.55;19559.81;5073356;28;20236;-72
2023/01/05 00:57:48;;;;;;;4.73;1.50;;;10.80;99.90;;;-141.84;70.89;19610.59;5074248;28;20224;-72
2023/01/05 01:00:19;;;;;;;3.97;1.60;;;10.80;99.90;;;-141.84;70.87;19588.25;5074774;28;20224;-72
2023/01/05 01:02:51;;;;;;;5.20;1.70;;;10.80;99.90;;;-141.84;71.32;19586.22;5074482;28;20224;-72
2023/01/05 01:05:20;;;;;;;5.87;1.80;;;10.90;99.90;;;-141.84;70.55;19582.16;5074366;28;20266;-72
2023/01/05 01:07:48;;;;;;;5.47;1.57;;;10.90;99.90;;;-141.84;69.93;19604.50;5074952;28;20204;-72
2023/01/05 01:10:18;;;;;;;5.00;1.80;;;11.00;99.90;;;-141.84;69.53;19632.97;5074675;28;20278;-72
2023/01/05 01:12:46;;;;;;;5.97;1.50;;;11.10;99.90;;;-141.84;69.89;19590.28;5074094;28;20235;-73
2023/01/05 01:15:14;;;;;;;6.20;1.60;;;11.10;99.90;;;-141.84;69.91;19618.75;5075020;28;20234;-71
2023/01/05 01:17:42;;;;;;;5.57;1.63;;;11.10;99.90;;;-141.84;70.13;19600.44;5074733;28;20224;-74
2023/01/05 01:20:11;;;;;;;5.40;1.87;;;11.00;99.90;;;-141.84;70.27;19618.75;5075166;28;20204;-74
2023/01/05 01:22:39;;;;;;;7.13;1.47;;;11.00;99.90;;;-141.84;70.09;19608.56;5074596;28;20232;-73
2023/01/05 01:25:08;;;;;;;3.73;1.50;;;10.90;99.90;;;-141.84;70.33;19614.66;5073641;28;20220;-72
2023/01/05 01:27:38;;;;;;;4.70;1.80;;;11.00;99.90;;;-141.84;69.50;19610.59;5073852;28;20220;-74
2023/01/05 01:30:08;;;;;;;3.97;1.70;;;11.00;99.90;;;-141.84;69.17;19600.44;5073671;28;20232;-72
2023/01/05 01:32:36;;;;;;;3.20;1.20;;;11.00;99.90;;;-141.84;69.15;19580.13;5074253;28;20232;-74
2023/01/05 01:35:07;;;;;;;4.57;1.50;;;11.00;99.90;;;-141.84;68.76;19624.84;5074348;28;20672;-73
2023/01/05 01:37:35;;;;;;;5.27;1.57;;;10.90;99.90;;;-141.84;68.77;19590.28;5073990;28;20232;-75
2023/01/05 01:40:04;;;;;;;5.03;1.77;;;10.90;99.90;;;-141.84;68.76;19608.56;5073914;28;20712;-74
2023/01/05 01:42:32;;;;;;;5.40;1.60;;;10.90;99.90;;;-141.84;69.15;19620.78;5073824;28;20229;-74
2023/01/05 01:45:17;;;;;;;3.47;1.43;;;10.90;99.90;;;-141.84;69.76;19580.13;5073732;28;20692;-74
2023/01/05 01:47:52;;;;;;;4.27;1.40;;;10.90;99.90;;;-141.84;70.08;19578.09;5073754;28;20575;-75
2023/01/05 01:50:28;;;;;;;3.30;1.30;;;10.90;99.90;;;-141.84;71.18;19588.25;5073676;28;20204;-73
2023/01/05 01:53:04;;;;;;;4.03;1.37;;;10.80;99.90;;;-141.84;70.98;19622.81;5073983;28;20284;-73
2023/01/05 01:55:35;;;;;;;4.00;1.23;;;10.80;99.90;;;-141.84;71.65;19578.09;5073311;28;20232;-73
2023/01/05 01:58:10;;;;;;;4.03;1.50;;;10.70;99.90;;;-141.84;72.48;19576.06;5073337;28;20231;-73
2023/01/05 02:00:41;;;;;;;5.03;1.50;;;10.70;99.90;;;-141.84;72.76;19537.44;5073411;28;20235;-73
2023/01/05 02:03:10;;;;;;;5.17;1.67;;;10.70;99.90;;;-141.84;73.03;19567.94;5073402;28;20236;-72
2023/01/05 02:05:39;;;;;;;6.33;1.70;;;10.70;99.90;;;-141.84;72.99;19535.41;5072838;28;20680;-72
2023/01/05 02:08:12;;;;;;;6.63;1.90;;;10.70;99.90;;;-141.84;73.42;19545.56;5073424;28;20205;-71
2023/01/05 02:11:01;;;;;;;5.57;2.00;;;10.60;99.90;;;-141.84;73.05;19557.78;5073230;28;20695;-71
2023/01/05 02:13:51;;;;;;;5.63;1.83;;;10.70;99.90;;;-141.84;73.35;19578.09;5073221;28;20229;-72
2023/01/05 02:16:43;;;;;;;5.23;1.77;;;10.60;99.90;;;-141.84;73.44;19531.34;5073212;28;20220;-72
2023/01/05 02:20:10;;;;;;;4.33;1.80;;;10.60;99.90;;;-141.84;72.79;19517.13;5073012;28;20250;-72
2023/01/05 02:23:09;;;;;;;6.57;1.80;;;10.60;99.90;;;-141.84;72.62;19533.38;5073203;28;20227;-72
2023/01/05 02:26:04;;;;;;;8.53;2.30;;;10.60;99.90;;;-141.84;72.13;19561.84;5072835;28;20224;-73
2023/01/05 02:29:06;;;;;;;6.47;1.73;;;10.60;99.90;;;-141.84;71.34;19582.16;5072602;28;20584;-72
2023/01/05 02:31:43;;;;;;;7.37;2.30;;;10.70;99.90;;;-141.84;71.09;19565.91;5072694;28;20227;-73
2023/01/05 02:34:22;;;;;;;5.43;1.87;;;10.70;99.90;;;-141.84;70.84;19565.91;5072489;28;20652;-72
2023/01/05 02:37:00;;;;;;;7.23;2.00;;;10.70;99.90;;;-141.84;70.54;19543.53;5072644;28;20221;-73
2023/01/05 02:39:38;;;;;;;6.90;2.03;;;10.70;99.90;;;-141.84;71.01;19549.63;5071742;28;20236;-70
2023/01/05 02:42:15;;;;;;;3.80;1.63;;;10.70;99.90;;;-141.84;70.17;19576.06;5072524;28;20224;-71
2023/01/05 02:44:44;;;;;;;6.27;1.63;;;10.80;99.90;;;-141.84;70.05;19596.38;5072333;28;20232;-72
2023/01/05 02:47:41;;;;;;;8.33;2.00;;;10.80;99.90;;;-141.84;70.83;19576.06;5073241;28;20201;-72
2023/01/05 02:50:17;;;;;;;4.60;1.80;;;10.70;99.90;;;-141.84;70.21;19569.97;5072529;28;20239;-73
2023/01/05 02:52:56;;;;;;;7.97;2.67;;;10.70;99.90;;;-141.84;69.82;19572.00;5072458;28;20239;-72
2023/01/05 02:55:35;;;;;;;6.53;1.90;;;10.80;99.90;;;-141.84;70.62;19565.91;5071784;28;20232;-72
2023/01/05 02:58:10;;;;;;;10.70;2.17;;;10.80;99.90;;;-141.84;69.98;19596.38;5071437;28;20302;-72
2023/01/05 03:00:44;;;;;;;4.17;1.90;;;10.80;99.90;;;-141.84;70.75;19567.94;5072159;28;20816;-72
2023/01/05 03:03:21;;;;;;;6.47;2.03;;;10.80;99.90;;;-141.84;73.15;19578.09;5072061;28;20228;-71
2023/01/05 03:05:56;;;;;;;8.63;2.37;;;10.80;99.90;;;-141.84;75.54;19533.38;5072085;28;20723;-73
2023/01/05 03:08:25;;;;;;;13.03;2.97;;;10.60;99.90;;;-141.84;76.59;19502.91;5071741;28;20204;-73
2023/01/05 03:13:59;;;;;;;7.03;2.10;;;10.30;99.90;;;-141.84;78.86;19456.16;5050911;28;20592;-74
2023/01/05 03:16:34;;;;;;;7.73;2.23;;;10.20;99.90;;;-141.84;80.07;19429.75;5071462;28;20220;-73
2023/01/05 03:36:18;;;;;;;11.10;2.67;;;9.60;99.90;;;-141.84;81.59;19393.16;5051424;28;20229;-75
2023/01/05 03:38:50;;;;;;;8.73;3.17;;;9.70;99.90;;;-141.84;80.52;19399.25;5063268;28;20230;-74
2023/01/05 03:41:22;;;;;;;6.10;2.37;;;9.70;99.90;;;-141.84;80.48;19401.28;5053002;28;20197;-73
2023/01/05 03:43:51;;;;;;;8.63;2.30;;;9.70;99.90;;;-141.84;80.08;19397.22;5053784;28;20182;-74
2023/01/05 03:46:22;;;;;;;6.03;2.40;;;9.70;99.90;;;-141.84;79.90;19387.06;5052813;28;20229;-74
2023/01/05 03:48:51;;;;;;;8.13;2.30;;;9.70;99.90;;;-141.84;78.89;19397.22;5053550;28;20225;-72
2023/01/05 03:51:20;;;;;;;5.03;2.10;;;9.70;99.90;;;-141.84;78.17;19407.38;5051529;28;20229;-72
2023/01/05 03:53:48;;;;;;;7.50;2.30;;;9.80;99.90;;;-141.84;78.55;19423.66;5052362;28;20248;-73
2023/01/05 03:56:16;;;;;;;4.50;2.07;;;9.80;99.90;;;-141.84;78.22;19372.84;5071048;28;20572;-71
2023/01/05 03:58:45;;;;;;;8.03;2.17;;;9.80;99.90;;;-141.84;78.81;19421.63;5074082;28;20192;-73
2023/01/05 04:01:13;;;;;;;6.07;2.13;;;9.70;99.90;;;-141.84;78.25;19393.16;5073353;28;20930;-71
2023/01/05 04:03:41;;;;;;;6.43;2.23;;;9.80;99.90;;;-141.84;76.82;19468.34;5073596;28;20228;-73
2023/01/05 04:06:09;;;;;;;7.17;2.40;;;9.80;99.90;;;-141.84;76.89;19407.38;5073729;28;20325;-71
2023/01/05 04:08:39;;;;;;;10.70;2.43;;;9.80;99.90;;;-141.84;77.74;19403.31;5073680;28;20584;-72
2023/01/05 04:11:15;;;;;;;7.37;2.47;;;9.70;99.90;;;-141.84;77.60;19413.47;5073508;28;20232;-72
2023/01/05 04:13:44;;;;;;;5.23;2.20;;;9.70;99.90;;;-141.84;77.53;19411.44;5073476;28;20208;-73
2023/01/05 04:16:13;;;;;;;8.70;2.50;;;9.70;99.90;;;-141.84;76.74;19405.34;5072655;28;20311;-72
2023/01/05 04:18:41;;;;;;;6.90;2.20;;;9.70;99.90;;;-141.84;75.40;19421.63;5073383;28;20235;-71
2023/01/05 04:21:10;;;;;;;7.53;2.87;;;9.80;99.90;;;-141.84;74.62;19431.78;5071410;28;20228;-73
2023/01/05 04:23:39;;;;;;;8.60;2.40;;;9.90;99.90;;;-141.84;74.00;19431.78;5070545;28;20220;-71
2023/01/05 04:26:08;;;;;;;7.40;2.43;;;9.90;99.90;;;-141.84;74.43;19450.06;5071511;28;20572;-72
2023/01/05 04:28:36;;;;;;;10.23;2.53;;;9.90;99.90;;;-141.84;73.28;19441.94;5070803;28;20216;-74
2023/01/05 04:31:04;;;;;;;6.37;2.53;;;10.00;99.90;;;-141.84;73.83;19421.63;5070614;28;20228;-72
2023/01/05 04:33:32;;;;;;;9.37;2.90;;;9.90;99.90;;;-141.84;75.01;19403.31;5070965;28;20228;-75
2023/01/05 04:36:00;;;;;;;6.53;2.50;;;9.70;99.90;;;-141.84;74.94;19421.63;5070698;28;20239;-71
2023/01/05 04:38:29;;;;;;;10.67;2.80;;;9.60;99.90;;;-141.84;75.56;19399.25;5070372;28;20209;-72
2023/01/05 04:40:58;;;;;;;6.20;2.47;;;9.60;99.90;;;-141.84;73.99;19419.59;5071213;28;20208;-73
2023/01/05 04:43:26;;;;;;;7.17;3.00;;;9.60;99.90;;;-141.84;74.64;19374.88;5070564;28;20227;-73
2023/01/05 04:45:54;;;;;;;4.60;2.50;;;9.60;99.90;;;-141.84;74.20;19417.56;5070260;28;20263;-71
2023/01/05 04:48:22;;;;;;;5.30;2.90;;;9.60;99.90;;;-141.84;73.71;19429.75;5070636;28;20243;-73
2023/01/05 04:50:54;;;;;;;5.13;2.10;;;9.70;99.90;;;-141.84;73.53;19427.72;5070269;28;20221;-72
2023/01/05 04:53:22;;;;;;;7.43;2.53;;;9.70;99.90;;;-141.84;72.81;19464.28;5070623;28;20250;-72
2023/01/05 04:55:51;;;;;;;5.87;2.13;;;9.70;99.90;;;-141.84;73.53;19458.19;5070891;28;20703;-73
2023/01/05 04:58:21;;;;;;;5.60;2.33;;;9.60;99.90;;;-141.84;73.52;19419.59;5070197;28;20232;-72
2023/01/05 05:00:50;;;;;;;7.03;2.27;;;9.70;99.90;;;-141.84;73.03;19421.63;5071577;28;20336;-71
2023/01/05 05:03:18;;;;;;;7.00;2.30;;;9.70;99.90;;;-141.84;72.40;19458.19;5072480;28;20229;-73
2023/01/05 05:05:46;;;;;;;5.70;2.40;;;9.70;99.90;;;-141.84;72.27;19403.31;5072892;28;20735;-72
2023/01/05 05:08:14;;;;;;;8.20;2.50;;;9.80;99.90;;;-141.84;72.13;19466.31;5073152;28;20215;-72
2023/01/05 05:10:42;;;;;;;6.83;2.93;;;9.70;99.90;;;-141.84;70.96;19476.47;5074134;28;20224;-72
2023/01/05 05:13:10;;;;;;;10.53;2.57;;;9.80;99.90;;;-141.84;69.75;19500.88;5073123;28;20224;-72
2023/01/05 05:15:40;;;;;;;6.13;2.40;;;10.00;99.90;;;-141.84;70.18;19476.47;5073511;28;20231;-74
2023/01/05 05:18:08;;;;;;;7.43;3.00;;;9.90;99.90;;;-141.84;69.54;19490.72;5073306;28;20224;-74
2023/01/05 05:20:41;;;;;;;6.17;2.37;;;10.00;99.90;;;-141.84;68.93;19515.09;5073736;28;20619;-75
2023/01/05 05:23:09;;;;;;;7.20;2.80;;;10.00;99.90;;;-141.84;68.94;19498.84;5074403;28;20185;-71
2023/01/05 05:25:37;;;;;;;5.00;2.10;;;10.10;99.90;;;-141.84;68.70;19517.13;5073889;28;20229;-75
2023/01/05 05:28:06;;;;;;;4.70;2.30;;;10.10;99.90;;;-141.84;69.15;19496.81;5073487;28;20235;-72
2023/01/05 05:30:34;;;;;;;7.57;2.70;;;10.10;99.90;;;-141.84;68.94;19535.41;5073715;28;20379;-73
2023/01/05 05:33:04;;;;;;;6.20;2.37;;;10.10;99.90;;;-141.84;68.71;19504.94;5074055;28;20861;-72
2023/01/05 05:35:32;;;;;;;6.63;2.60;;;10.10;99.90;;;-141.84;68.36;19529.31;5074234;28;20220;-71
2023/01/05 05:38:00;;;;;;;6.10;2.37;;;10.10;99.90;;;-141.84;68.75;19523.22;5073636;28;20761;-72
2023/01/05 05:40:29;;;;;;;5.83;2.47;;;10.10;99.90;;;-141.84;68.98;19506.97;5072791;28;20217;-72
2023/01/05 05:42:57;;;;;;;10.93;2.57;;;10.10;99.90;;;-141.84;69.07;19480.53;5074427;28;20700;-72
2023/01/05 05:45:25;;;;;;;7.43;2.50;;;10.00;99.90;;;-141.84;69.36;19502.91;5074996;28;20232;-72
2023/01/05 05:47:53;;;;;;;9.40;2.63;;;10.00;99.90;;;-141.84;69.69;19494.78;5073642;28;20229;-72
2023/01/05 05:50:23;;;;;;;8.40;2.63;;;9.90;99.90;;;-141.84;69.00;19488.69;5073945;28;20197;-70
2023/01/05 05:52:51;;;;;;;7.77;2.23;;;9.90;99.90;;;-141.84;68.47;19498.84;5075779;28;20205;-72
2023/01/05 05:55:19;;;;;;;6.47;2.37;;;9.90;99.90;;;-141.84;68.33;19529.31;5074282;28;20668;-73
2023/01/05 05:57:48;;;;;;;6.00;2.40;;;9.90;99.90;;;-141.84;68.92;19502.91;5074137;28;20232;-72
2023/01/05 06:00:17;;;;;;;5.73;2.30;;;9.90;99.90;;;-141.84;69.15;19464.28;5074662;28;20246;-71
2023/01/05 06:02:45;;;;;;;7.30;2.67;;;9.90;99.90;;;-141.84;69.53;19480.53;5073893;28;20235;-72
2023/01/05 06:05:14;;;;;;;8.23;2.50;;;9.80;99.90;;;-141.84;68.64;19506.97;5074371;28;20660;-73
2023/01/05 06:07:43;;;;;;;5.17;2.13;;;9.90;99.90;;;-141.84;68.41;19515.09;5075270;28;20220;-72
2023/01/05 06:10:12;;;;;;;5.53;2.40;;;9.90;99.90;;;-141.84;68.26;19531.34;5077018;28;20225;-72
2023/01/05 06:12:40;;;;;;;5.70;2.40;;;10.00;99.90;;;-141.84;68.44;19460.22;5075643;28;20315;-71
2023/01/05 06:15:10;;;;;;;5.60;2.27;;;9.90;99.90;;;-141.84;68.21;19533.38;5076751;28;20278;-71
2023/01/05 06:17:38;;;;;;;8.93;2.47;;;10.00;99.90;;;-141.84;68.66;19509.00;5076635;28;20228;-72
2023/01/05 06:20:09;;;;;;;9.50;2.83;;;9.90;99.90;;;-141.84;69.07;19478.50;5077239;28;20205;-71
2023/01/05 06:22:37;;;;;;;6.77;3.13;;;9.80;99.90;;;-141.84;69.83;19468.34;5075857;28;20225;-72
2023/01/05 06:25:08;;;;;;;6.07;2.43;;;9.90;99.90;;;-141.84;69.22;19488.69;5068710;28;20228;-73
2023/01/05 06:27:36;;;;;;;6.90;2.50;;;9.70;99.90;;;-141.84;68.80;19519.16;5076489;28;20802;-73
2023/01/05 06:30:06;;;;;;;4.70;2.40;;;9.80;99.90;;;-141.84;69.34;19476.47;5074429;28;20696;-70
2023/01/05 06:32:34;;;;;;;5.93;2.03;;;9.80;99.90;;;-141.84;68.90;19486.66;5071063;28;20223;-70
2023/01/05 06:35:02;;;;;;;6.07;2.57;;;9.70;99.90;;;-141.84;69.19;19482.56;5075863;28;20197;-70
2023/01/05 06:37:30;;;;;;;4.37;2.37;;;9.80;99.90;;;-141.84;68.78;19488.69;5073623;28;20220;-69
2023/01/05 06:39:58;;;;;;;7.50;2.37;;;9.70;99.90;;;-141.84;68.03;19521.19;5074003;28;20232;-70
2023/01/05 06:42:28;;;;;;;5.07;2.33;;;9.80;99.90;;;-141.84;67.71;19521.19;5073426;28;20240;-70
2023/01/05 06:44:56;;;;;;;5.27;2.60;;;9.80;99.90;;;-141.84;68.48;19492.75;5072831;28;20216;-70
2023/01/05 06:47:24;;;;;;;4.17;2.23;;;9.80;99.90;;;-141.84;68.62;19484.59;5072330;28;20543;-69
2023/01/05 06:49:53;;;;;;;6.00;2.97;;;9.80;99.90;;;-141.84;67.76;19533.38;5072529;28;20200;-72
2023/01/05 06:52:21;;;;;;;5.37;2.37;;;9.90;99.90;;;-141.84;67.63;19504.94;5071281;28;20227;-71
2023/01/05 06:54:49;;;;;;;6.23;2.57;;;9.90;99.90;;;-141.84;67.75;19527.28;5071614;28;20623;-73
2023/01/05 06:57:17;;;;;;;7.67;2.90;;;9.90;99.90;;;-141.84;69.26;19517.13;5070660;28;20231;-71
2023/01/05 06:59:47;;;;;;;7.17;3.27;;;9.80;99.90;;;-141.84;68.12;19502.91;5072692;28;20224;-71
2023/01/05 07:02:17;;;;;;;5.83;2.67;;;9.90;99.90;;;-141.84;68.95;19496.81;5072575;28;20201;-71
2023/01/05 07:04:45;;;;;;;11.40;3.10;;;9.80;99.90;;;-141.84;69.38;19484.59;5072847;28;20217;-70
2023/01/05 07:07:14;;;;;;;7.87;3.57;;;9.80;99.90;;;-141.84;69.48;19474.44;5068103;28;20682;-70
2023/01/05 07:09:43;;;;;;;6.50;2.87;;;9.70;99.90;;;-141.84;68.55;19498.84;5067206;28;20224;-70
2023/01/05 07:12:12;;;;;;;5.37;2.70;;;9.80;99.90;;;-141.84;68.18;19525.25;5072697;28;20256;-70
2023/01/05 07:14:40;;;;;;;7.50;3.23;;;9.80;99.90;;;-141.84;69.01;19504.94;5072814;28;20220;-71
2023/01/05 07:17:11;;;;;;;9.23;3.30;;;9.80;99.90;;;-141.84;69.78;19488.69;5073299;28;20201;-71
2023/01/05 07:19:39;;;;;;;6.57;2.93;;;9.80;99.90;;;-141.84;69.77;19525.25;5072519;28;20684;-69
2023/01/05 07:22:08;;;;;;;8.53;3.73;;;9.70;99.90;;;-141.84;70.02;19472.41;5072052;28;20221;-71
2023/01/05 07:24:36;;;;;;;6.07;2.73;;;9.70;99.90;;;-141.84;69.31;19521.19;5071127;28;20220;-70
2023/01/05 07:27:05;;;;;;;5.77;2.67;;;9.80;99.90;;;-141.84;69.67;19500.88;5072405;28;20247;-70
2023/01/05 07:29:37;;;;;;;7.17;2.93;;;9.80;99.90;;;-141.84;69.57;19496.81;5071095;28;20247;-69
2023/01/05 07:32:06;;;;;;;8.37;3.30;;;9.80;99.90;;;-141.84;69.73;19488.69;5072242;28;20267;-70
2023/01/05 07:34:35;;;;;;;10.63;4.97;;;9.80;99.90;;;-141.84;69.53;19511.03;5071569;28;20216;-70
2023/01/05 07:37:04;;;;;;;7.93;3.60;;;9.80;99.90;;;-141.84;70.14;19482.56;5071522;28;20232;-72
2023/01/05 07:39:32;;;;;;;8.53;2.60;;;9.80;99.90;;;-141.84;70.15;19480.53;5071695;28;20228;-70
2023/01/05 07:42:00;;;;;;;9.43;3.73;;;9.80;99.90;;;-141.84;70.01;19525.25;5071023;28;20226;-71
2023/01/05 07:44:28;;;;;;;6.57;2.43;;;9.80;99.90;;;-141.84;70.60;19541.50;5071334;28;20207;-70
2023/01/05 07:46:57;;;;;;;7.83;2.60;;;9.80;99.90;;;-141.84;70.00;19476.47;5071944;28;20217;-72
2023/01/05 07:49:25;;;;;;;6.70;2.67;;;9.80;99.90;;;-141.84;70.15;19500.88;5071976;28;20235;-70
2023/01/05 07:51:55;;;;;;;5.60;2.40;;;9.80;99.90;;;-141.84;69.76;19470.38;5072285;28;20228;-69
2023/01/05 07:54:23;;;;;;;6.33;2.77;;;9.90;99.90;;;-141.84;71.27;19494.78;5071912;28;20264;-70
2023/01/05 07:56:52;;;;;;;7.00;2.60;;;9.80;99.90;;;-141.84;72.07;19484.59;5072157;28;20225;-71
2023/01/05 07:59:20;;;;;;;10.77;3.00;;;9.80;99.90;;;-141.84;73.99;19470.38;5071397;28;20236;-70
2023/01/05 08:01:49;;;;;;;7.37;2.40;;;9.70;99.90;;;-141.84;74.54;19454.13;5072199;28;20197;-71
2023/01/05 08:04:17;;;;;;;8.67;3.00;;;9.70;99.90;;;-141.84;76.07;19397.22;5071451;28;20224;-71
2023/01/05 08:06:45;;;;;;;7.90;2.80;;;9.60;99.90;;;-141.84;76.54;19393.16;5071511;28;20248;-71
2023/01/05 08:12:01;;;;;;;9.97;2.97;;;9.40;99.90;;;-141.84;77.43;19380.97;5071474;28;20235;-71
2023/01/05 08:14:29;;;;;;;7.10;3.30;;;9.30;99.90;;;-141.84;77.48;19383.00;5071516;28;20207;-71
2023/01/05 08:16:57;;;;;;;8.10;3.20;;;9.30;99.90;;;-141.84;77.75;19423.66;5071497;28;20215;-70
2023/01/05 08:19:25;;;;;;;9.33;3.30;;;9.30;99.90;;;-141.84;77.52;19397.22;5071138;28;20677;-70
2023/01/05 08:21:53;;;;;;;8.90;3.20;;;9.30;99.90;;;-141.84;76.28;19403.31;5071492;28;20648;-71
2023/01/05 08:24:23;;;;;;;6.73;2.83;;;9.40;99.90;;;-141.84;76.00;19409.41;5071371;28;20266;-70
2023/01/05 08:26:51;;;;;;;7.00;2.80;;;9.40;99.90;;;-141.84;76.15;19391.13;5071264;28;20704;-71
2023/01/05 08:29:20;;;;;;;5.77;2.60;;;9.40;99.90;;;-141.84;75.68;19407.38;5071482;28;20653;-71
2023/01/05 08:31:48;;;;;;;9.30;3.10;;;9.50;99.90;;;-141.84;75.61;19423.66;5071968;28;20198;-72
2023/01/05 08:34:16;;;;;;;7.27;3.00;;;9.50;99.90;;;-141.84;75.32;19425.69;5071688;28;20228;-70
2023/01/05 08:36:45;;;;;;;7.03;3.00;;;9.60;99.90;;;-141.84;75.26;19427.72;5063127;28;20223;-71
2023/01/05 08:39:13;;;;;;;6.77;2.53;;;9.60;99.90;;;-141.84;75.12;19429.75;5071276;28;20246;-70
2023/01/05 08:41:43;;;;;;;7.63;3.00;;;9.70;99.90;;;-141.84;75.63;19423.66;5071238;28;20878;-71
2023/01/05 08:44:13;;;;;;;6.90;3.07;;;9.70;99.90;;;-141.84;74.97;19431.78;5071727;28;20215;-70
2023/01/05 08:46:41;;;;;;;7.00;2.70;;;9.70;99.90;;;-141.84;74.81;19446.00;5070722;28;20224;-70
2023/01/05 08:49:10;;;;;;;7.70;3.33;;;9.70;99.90;;;-141.84;74.91;19431.78;5071202;28;20228;-70
2023/01/05 08:51:38;;;;;;;6.57;2.80;;;9.70;99.90;;;-141.84;75.05;19439.91;5070945;28;20324;-70
2023/01/05 08:54:06;;;;;;;6.63;3.40;;;9.70;99.90;;;-141.84;74.84;19468.34;5070985;28;20260;-71
2023/01/05 08:56:35;;;;;;;7.10;3.27;;;9.70;99.90;;;-141.84;74.28;19464.28;5071534;28;20200;-69
2023/01/05 08:59:11;;;;;;;9.33;3.30;;;9.80;99.90;;;-141.84;72.84;19448.03;5071638;28;20277;-70
2023/01/05 09:01:39;;;;;;;7.63;3.30;;;9.90;99.90;;;-141.84;71.77;19472.41;5071034;28;20235;-71
2023/01/05 09:04:08;;;;;;;8.97;3.60;;;10.00;99.90;;;-141.84;72.32;19494.78;5070862;28;20229;-70
2023/01/05 09:06:36;;;;;;;8.10;3.77;;;10.10;99.90;;;-141.84;70.97;19545.56;5070754;28;20312;-71
2023/01/05 09:09:05;;;;;;;9.10;3.53;;;10.30;99.90;;;-141.84;71.38;19543.53;5069861;28;20795;-70
2023/01/05 09:11:34;;;;;;;6.97;3.10;;;10.20;99.90;;;-141.84;71.92;19511.03;5071084;28;20211;-70
2023/01/05 09:14:03;;;;;;;6.40;3.00;;;10.30;99.90;;;-141.84;72.84;19474.44;5071660;28;20293;-70
2023/01/05 09:16:34;;;;;;;7.90;4.27;;;10.20;99.90;;;-141.84;72.85;19492.75;5073603;28;20242;-71
2023/01/05 09:19:23;;;;;;;6.73;4.00;;;10.20;99.90;;;-141.84;73.64;19480.53;5074849;28;20228;-71
2023/01/05 09:21:52;;;;;;;9.03;4.53;;;10.10;99.90;;;-141.84;73.69;19468.34;5075069;28;20308;-71
2023/01/05 09:24:20;;;;;;;7.27;3.40;;;10.00;99.90;;;-141.84;73.96;19480.53;5074927;28;20224;-70
2023/01/05 09:26:49;;;;;;;8.13;3.13;;;10.00;99.90;;;-141.84;73.74;19482.56;5071899;28;20220;-70
2023/01/05 09:29:17;;;;;;;3.83;2.47;;;10.00;99.90;;;-141.84;73.92;19486.66;5067125;28;20560;-69
2023/01/05 09:31:47;;;;;;;5.30;2.80;;;10.00;99.90;;;-141.84;73.72;19494.78;5074669;28;20211;-69
2023/01/05 09:34:17;;;;;;;6.93;3.10;;;10.00;99.90;;;-141.84;73.73;19537.44;5073798;28;20224;-70
2023/01/05 09:36:46;;;;;;;6.50;2.53;;;10.00;99.90;;;-141.84;73.74;19488.69;5073822;28;20220;-70
2023/01/05 09:39:14;;;;;;;6.27;2.60;;;10.10;99.90;;;-141.84;74.13;19509.00;5057570;28;20233;-70
2023/01/05 09:41:47;;;;;;;8.60;2.67;;;10.20;99.90;;;-141.84;73.90;19498.84;5064562;28;20258;-70
2023/01/05 09:44:29;;;;;;;3.30;2.33;;;10.00;99.90;;;-141.84;73.33;19517.13;5074219;28;20185;-71
2023/01/05 09:47:04;;;;;;;4.83;2.03;;;10.10;99.90;;;-141.84;74.01;19492.75;5074439;28;20304;-69
2023/01/05 09:49:35;;;;;;;6.70;2.97;;;10.10;99.90;;;-141.84;74.80;19482.56;5073518;28;20250;-70
2023/01/05 09:52:09;;;;;;;4.03;2.70;;;10.00;99.90;;;-141.84;74.88;19443.97;5074206;28;20231;-70
2023/01/05 09:54:39;;;;;;;4.67;2.07;;;10.00;99.90;;;-141.84;75.23;19450.06;5073074;28;20303;-70
2023/01/05 09:57:16;;;;;;;3.97;2.23;;;10.00;99.90;;;-141.84;75.01;19470.38;5073694;28;20251;-69
2023/01/05 09:59:48;;;;;;;4.63;2.33;;;10.00;99.90;;;-141.84;74.03;19498.84;5073034;28;20719;-70
2023/01/05 10:02:32;;;;;;;5.33;2.50;;;10.10;99.90;;;-141.84;74.92;19462.25;5073391;28;20217;-69
2023/01/05 10:05:04;;;;;;;5.13;2.33;;;10.10;99.90;;;-141.84;76.09;19454.13;5074719;28;20185;-69
2023/01/05 10:07:43;;;;;;;4.60;2.10;;;10.00;99.90;;;-141.84;76.96;19423.66;5071791;28;20633;-69
2023/01/05 10:10:27;;;;;;;5.37;2.47;;;9.90;99.90;;;-141.84;77.59;19425.69;5072395;28;20225;-69
2023/01/05 10:13:04;;;;;;;7.40;2.50;;;9.80;99.90;;;-141.84;77.42;19421.63;5072846;28;20227;-71
2023/01/05 10:15:42;;;;;;;4.73;2.30;;;9.80;99.90;;;-141.84;76.81;19466.31;5072763;28;20282;-69
2023/01/05 10:18:15;;;;;;;4.57;2.60;;;9.90;99.90;;;-141.84;76.45;19484.59;5073076;28;20216;-71
2023/01/05 10:20:59;;;;;;;5.67;2.40;;;10.00;99.90;;;-141.84;75.93;19496.81;5073307;28;20637;-68
2023/01/05 10:24:01;;;;;;;4.43;2.40;;;10.20;99.90;;;-141.84;74.02;19496.81;5072781;28;20231;-69
2023/01/05 10:26:43;;;;;;;5.70;2.27;;;10.40;99.90;;;-141.84;73.04;19517.13;5073392;28;20189;-71
2023/01/05 10:29:43;;;;;;;6.47;2.30;;;10.50;99.90;;;-141.84;74.74;19478.50;5073182;28;20211;-71
2023/01/05 10:32:24;;;;;;;4.37;2.40;;;10.40;99.90;;;-141.84;75.45;19464.28;5072992;28;20192;-68
2023/01/05 10:34:59;;;;;;;5.80;2.93;;;10.30;99.90;;;-141.84;76.74;19446.00;5072557;28;20266;-71
2023/01/05 10:38:04;;;;;;;5.70;2.70;;;10.30;99.90;;;-141.84;77.28;19450.06;5071868;28;20620;-70
2023/01/05 10:40:50;;;;;;;6.23;2.47;;;10.20;99.90;;;-141.84;76.84;19448.03;5072426;28;20228;-69
2023/01/05 10:43:58;;;;;;;6.10;2.80;;;10.20;99.90;;;-141.84;76.46;19484.59;5071992;28;20311;-70
2023/01/05 10:46:26;;;;;;;4.63;2.40;;;10.20;99.90;;;-141.84;75.96;19484.59;5071276;28;20254;-73
2023/01/05 10:49:08;;;;;;;4.43;2.50;;;10.30;99.90;;;-141.84;75.61;19498.84;5073344;28;20251;-70
2023/01/05 10:51:38;;;;;;;5.63;2.57;;;10.40;99.90;;;-141.84;75.11;19523.22;5072988;28;20224;-70
2023/01/05 10:54:20;;;;;;;6.43;2.83;;;10.40;99.90;;;-141.84;73.21;19537.44;5072367;28;20544;-71
2023/01/05 10:56:48;;;;;;;5.43;2.33;;;10.70;99.90;;;-141.84;72.12;19531.34;5073465;28;20219;-71
2023/01/05 10:59:17;;;;;;;5.57;2.53;;;10.80;99.90;;;-141.84;71.64;19588.25;5072057;28;20208;-68
2023/01/05 11:01:49;;;;;;;4.57;2.67;;;10.90;99.90;;;-141.84;71.13;19588.25;5072601;28;20203;-69